createdAt,value
2024-01-20T00:04:18.193Z,10.90
2024-01-20T00:14:46.436Z,11.90
2024-01-20T00:25:14.335Z,10.60
2024-01-20T00:35:44.075Z,11.10
2024-01-20T00:46:11.860Z,10.00
2024-01-20T00:56:39.647Z,10.10
2024-01-20T01:07:07.561Z,8.80
2024-01-20T01:17:35.376Z,10.50
2024-01-20T01:28:03.117Z,10.70
2024-01-20T01:38:30.857Z,10.20
2024-01-20T01:48:59.604Z,8.40
2024-01-20T01:59:27.968Z,10.00
2024-01-20T02:09:55.703Z,9.80
2024-01-20T02:20:24.353Z,9.00
2024-01-20T02:30:52.226Z,6.90
2024-01-20T02:41:19.940Z,8.30
2024-01-20T02:51:47.678Z,7.30
2024-01-20T03:02:15.396Z,8.00
2024-01-20T03:12:43.111Z,7.10
2024-01-20T03:23:10.912Z,6.20
2024-01-20T03:33:38.831Z,7.00
2024-01-20T03:44:06.754Z,7.50
2024-01-20T03:54:34.503Z,6.80
2024-01-20T04:05:02.315Z,6.70
2024-01-20T04:15:30.336Z,7.20
2024-01-20T04:25:58.142Z,5.60
2024-01-20T04:36:25.917Z,6.40
2024-01-20T04:46:53.646Z,4.90
2024-01-20T04:57:21.462Z,6.90
2024-01-20T05:07:49.320Z,5.40
2024-01-20T05:18:17.222Z,6.70
2024-01-20T05:28:45.028Z,5.50
2024-01-20T05:39:12.908Z,5.40
2024-01-20T05:49:40.811Z,4.90
2024-01-20T06:00:11.153Z,5.20
2024-01-20T06:10:38.609Z,5.40
2024-01-20T06:21:06.649Z,12.30
2024-01-20T06:31:34.285Z,10.40
2024-01-20T06:42:01.966Z,8.10
2024-01-20T06:52:30.976Z,7.70
2024-01-20T07:02:59.908Z,8.50
2024-01-20T07:13:28.035Z,7.60
2024-01-20T07:23:56.209Z,9.30
2024-01-20T07:34:24.511Z,8.00
2024-01-20T07:44:53.481Z,7.20
2024-01-20T07:55:21.825Z,6.70
2024-01-20T08:05:51.097Z,6.00
2024-01-20T08:16:21.387Z,6.70
2024-01-20T08:26:51.635Z,7.80
2024-01-20T08:37:20.671Z,11.20
2024-01-20T08:47:51.033Z,9.20
2024-01-20T08:58:20.285Z,9.90
2024-01-20T09:08:51.771Z,13.90
2024-01-20T09:19:20.908Z,9.40
2024-01-20T09:29:50.224Z,14.30
2024-01-20T09:40:20.009Z,11.80
2024-01-20T09:50:51.737Z,11.40
2024-01-20T10:01:20.918Z,11.30
2024-01-20T10:11:51.834Z,9.70
2024-01-20T10:22:22.300Z,11.00
2024-01-20T10:33:04.199Z,10.30
2024-01-20T10:43:51.417Z,12.30
2024-01-20T10:54:22.319Z,9.90
2024-01-20T11:04:55.285Z,8.80
2024-01-20T11:15:24.366Z,11.00
2024-01-20T11:25:55.150Z,8.00
2024-01-20T11:36:24.595Z,8.90
2024-01-20T11:46:53.560Z,10.20
2024-01-20T11:57:28.977Z,9.60
2024-01-20T12:08:00.649Z,10.70
2024-01-20T12:18:31.575Z,7.90
2024-01-20T12:29:01.570Z,8.70
2024-01-20T12:39:32.614Z,9.50
2024-01-20T12:50:07.536Z,9.60
2024-01-20T13:00:37.739Z,7.40
2024-01-20T13:11:10.627Z,12.00
2024-01-20T13:21:52.488Z,11.90
2024-01-20T13:32:21.107Z,11.30
2024-01-20T13:42:49.221Z,15.10
2024-01-20T13:53:16.873Z,15.10
2024-01-20T14:03:44.703Z,11.60
2024-01-20T14:14:29.526Z,11.80
2024-01-20T14:25:03.129Z,11.80
2024-01-20T14:35:30.655Z,10.90
2024-01-20T14:45:58.533Z,15.70
2024-01-20T14:56:30.154Z,13.30
2024-01-20T15:06:58.958Z,14.20
2024-01-20T15:17:43.752Z,18.70
2024-01-20T15:28:12.514Z,17.20
2024-01-20T15:38:59.952Z,17.30
2024-01-20T15:49:28.030Z,14.20
2024-01-20T15:59:58.480Z,15.90
2024-01-20T16:10:26.332Z,15.60
2024-01-20T16:20:54.298Z,11.90
2024-01-20T16:31:32.813Z,13.30
2024-01-20T16:42:01.258Z,10.60
2024-01-20T16:52:29.055Z,12.40
2024-01-20T17:02:57.426Z,12.30
2024-01-20T17:13:25.401Z,11.00
2024-01-20T17:23:53.368Z,11.20
2024-01-20T17:34:24.101Z,11.70
2024-01-20T17:44:51.949Z,11.20
2024-01-20T17:55:20.046Z,10.80
2024-01-20T18:05:48.089Z,11.20
2024-01-20T18:16:16.038Z,8.80
2024-01-20T18:26:43.867Z,10.30
2024-01-20T18:37:11.771Z,8.60
2024-01-20T18:47:41.473Z,9.70
2024-01-20T18:58:09.087Z,8.40
2024-01-20T19:08:38.463Z,7.80
2024-01-20T19:19:07.485Z,11.50
2024-01-20T19:29:36.195Z,14.10
2024-01-20T19:40:04.526Z,11.70
2024-01-20T19:50:32.504Z,8.00
2024-01-20T20:01:00.385Z,8.20
2024-01-20T20:11:28.183Z,8.30
2024-01-20T20:21:56.030Z,11.40
2024-01-20T20:32:24.145Z,11.20
2024-01-20T20:42:52.076Z,12.30
2024-01-20T20:53:19.984Z,11.50
2024-01-20T21:03:48.169Z,13.40
2024-01-20T21:14:16.166Z,10.80
2024-01-20T21:24:44.038Z,10.80
2024-01-20T21:35:12.185Z,10.70
2024-01-20T21:45:40.003Z,22.00
2024-01-20T21:56:08.672Z,11.60
2024-01-20T22:06:36.436Z,13.20
2024-01-20T22:17:04.321Z,10.40
2024-01-20T22:27:32.162Z,12.20
2024-01-20T22:38:00.773Z,14.60
2024-01-20T22:48:33.455Z,12.50
2024-01-20T22:59:01.347Z,14.70
2024-01-20T23:09:29.216Z,13.80
2024-01-20T23:19:57.005Z,10.40
2024-01-20T23:30:27.474Z,12.20
2024-01-20T23:40:55.260Z,10.60
2024-01-20T23:51:23.034Z,10.40
